Huvudsida
METAR-TAF:

METAR-TAF

Flygplatser :

Svolværs flygplats. Helle

Svolvær, Norge

latitud: 68-15N, longitud: 014-40E, höjd: 0 m

Aktuellt väderrapport

Denna rapport gjordes för 1 timme och 49 minuter sedan, klockan 11:50 UTC
Vind 8 kt från nordost
Temperatur 16°C
Fuktighet 59%
Tryck 1002 hPa
Sikt 10 km eller mer
Brutna moln på en höjd av 4600 ft

METAR: ENSH 171150Z 05008KT 9999 BKN046 16/08 Q1002 RMK WIND 150FT 06012KT

Tid: 15:39 (13:39 UTC)

Väderprognos

Denna rapport gjordes för 5 timmar och 39 minuter sedan, klockan 08:00 UTC
Prognos gäller från 17 kl. 09 UTC till 17 kl. 14 UTC
Vind 9 kt från ost
Sikt 10 km eller mer
Inga moln under 1 500 m eller inga cumulonimbus

TAF: ENSH 170800Z 1709/1714 10009KT CAVOK

Aktuella väderrapporter och prognoser från 4000 flygplatser (METAR- och TAF-rapporter).

De tillgängliga stationerna syns som gula och röda prickar på kartan.

För musen över prickarna för att se namnen på stationerna.

Klicka sedan för att få väderrapporter och prognoser.

För att ändra kartan: Klicka på de gröna knapparna med ett svart kors på för att zooma in; den gröna knappen med ett streck på för att zooma ut; eller på de gröna pilarna för angränsande kartor.


METAR-TAF: